Terminal Aerodrome Forecast
Issued by NWS

Home | Current Version | Previous Version | Text Only | Print | Product List | Glossary On
Versions: 1 2 3 4 5 6 7 8 9 10 11 12 13 14 15
000
FTUS43 KPAH 231323 AAA
TAFOWB
TAF AMD
KOWB 231323Z 2313/2412 19010G15KT P6SM SCT015 BKN025
     FM231500 19010KT 4SM SHRA BR OVC025
      TEMPO 2315/2319 2SM SHRA BR BKN015
     FM232200 28010G15KT P6SM VCSH BKN025
     FM240200 31012G18KT P6SM SCT025 BKN050
     FM240800 32007KT P6SM SCT050=

USA.gov is the U.S. government's official web portal to all federal, state and local government web resources and services.